createdAt,value
2022-08-25T00:02:56.772Z,101151.63
2022-08-25T00:08:00.718Z,101145.69
2022-08-25T00:13:16.035Z,101149.50
2022-08-25T00:18:26.410Z,101149.16
2022-08-25T00:23:28.122Z,101148.28
2022-08-25T00:29:01.886Z,101154.09
2022-08-25T00:34:17.891Z,101149.84
2022-08-25T00:39:22.327Z,101148.22
2022-08-25T00:44:26.676Z,101153.16
2022-08-25T00:49:58.334Z,101156.69
2022-08-25T00:55:08.051Z,101160.56
2022-08-25T01:00:16.412Z,101160.38
2022-08-25T01:05:36.553Z,101154.44
2022-08-25T01:10:45.907Z,101155.59
2022-08-25T01:15:49.137Z,101147.19
2022-08-25T01:20:59.899Z,101148.84
2022-08-25T01:26:12.097Z,101152.09
2022-08-25T01:31:23.846Z,101158.09
2022-08-25T01:36:30.131Z,101154.56
2022-08-25T01:41:34.918Z,101152.41
2022-08-25T01:46:36.616Z,101160.78
2022-08-25T01:51:45.997Z,101147.19
2022-08-25T01:56:48.090Z,101150.19
2022-08-25T02:01:49.943Z,101155.84
2022-08-25T02:07:05.110Z,101155.03
2022-08-25T02:12:07.953Z,101163.69
2022-08-25T02:17:27.027Z,101160.91
2022-08-25T02:22:29.035Z,101162.53
2022-08-25T02:27:30.920Z,101171.41
2022-08-25T02:32:35.632Z,101160.34
2022-08-25T02:37:37.455Z,101167.00
2022-08-25T02:42:39.670Z,101165.06
2022-08-25T02:47:45.659Z,101155.31
2022-08-25T02:52:58.612Z,101150.72
2022-08-25T02:58:00.513Z,101142.84
2022-08-25T03:03:06.564Z,101135.28
2022-08-25T03:08:08.920Z,101133.06
2022-08-25T03:13:16.452Z,101129.44
2022-08-25T03:18:19.764Z,101128.16
2022-08-25T03:23:21.781Z,101127.84
2022-08-25T03:28:28.919Z,101125.94
2022-08-25T03:33:45.364Z,101115.59
2022-08-25T03:38:46.858Z,101118.22
2022-08-25T03:43:53.717Z,101110.09
2022-08-25T03:48:56.738Z,101113.34
2022-08-25T03:53:59.804Z,101102.22
2022-08-25T03:59:04.375Z,101110.41
2022-08-25T04:04:07.374Z,101090.16
2022-08-25T04:09:12.486Z,101085.84
2022-08-25T04:14:19.787Z,101087.44
2022-08-25T04:19:22.431Z,101089.06
2022-08-25T04:24:24.109Z,101086.91
2022-08-25T04:29:37.877Z,101089.06
2022-08-25T04:34:47.235Z,101091.50
2022-08-25T04:39:51.581Z,101097.47
2022-08-25T04:44:53.949Z,101087.47
2022-08-25T04:50:02.930Z,101093.72
2022-08-25T04:55:04.775Z,101090.50
2022-08-25T05:00:07.570Z,101083.78
2022-08-25T05:05:12.376Z,101075.91
2022-08-25T05:10:19.714Z,101075.34
2022-08-25T05:15:26.305Z,101077.28
2022-08-25T05:20:28.218Z,101086.47
2022-08-25T05:25:30.205Z,101076.19
2022-08-25T05:30:31.873Z,101075.66
2022-08-25T05:35:35.011Z,101073.22
2022-08-25T05:40:49.619Z,101071.91
2022-08-25T05:45:54.275Z,101061.94
2022-08-25T05:50:58.431Z,101059.50
2022-08-25T05:56:00.396Z,101066.03
2022-08-25T06:01:02.411Z,101063.91
2022-08-25T06:06:07.791Z,101053.13
2022-08-25T06:11:10.441Z,101060.16
2022-08-25T06:16:12.186Z,101063.16
2022-08-25T06:21:14.657Z,101060.16
2022-08-25T06:26:19.569Z,101067.25
2022-08-25T06:31:22.933Z,101070.47
2022-08-25T06:36:24.524Z,101073.47
2022-08-25T06:41:36.792Z,101084.59
2022-08-25T06:51:40.194Z,101085.09
2022-08-25T06:56:42.391Z,101089.94
2022-08-25T07:01:45.180Z,101093.41
2022-08-25T07:06:47.530Z,101088.97
2022-08-25T07:11:48.968Z,101075.34
2022-08-25T07:16:50.568Z,101068.66
2022-08-25T07:21:53.408Z,101080.03
2022-08-25T07:26:54.827Z,101075.66
2022-08-25T07:31:56.348Z,101078.88
2022-08-25T07:36:59.743Z,101083.56
2022-08-25T07:42:01.869Z,101074.81
2022-08-25T07:47:03.655Z,101073.50
2022-08-25T07:52:06.624Z,101075.63
2022-08-25T07:57:09.269Z,101083.91
2022-08-25T08:02:18.399Z,101066.19
2022-08-25T08:07:23.714Z,101067.88
2022-08-25T08:12:38.926Z,101071.44
2022-08-25T08:17:40.394Z,101065.59
2022-08-25T08:22:43.310Z,101069.75
2022-08-25T08:27:44.771Z,101064.69
2022-08-25T08:33:08.750Z,101064.03
2022-08-25T08:38:14.859Z,101047.28
2022-08-25T08:43:20.096Z,101044.97
2022-08-25T08:48:34.748Z,101044.34
2022-08-25T08:53:45.070Z,101042.44
2022-08-25T08:58:52.314Z,101039.44
2022-08-25T09:04:05.222Z,101026.09
2022-08-25T09:09:09.229Z,101021.47
2022-08-25T09:14:30.625Z,101014.25
2022-08-25T09:19:44.222Z,101025.38
2022-08-25T09:25:18.785Z,101007.81
2022-08-25T09:30:24.891Z,101017.84
2022-08-25T09:35:32.744Z,101009.69
2022-08-25T09:40:39.462Z,101002.72
2022-08-25T09:45:47.491Z,100992.00
2022-08-25T09:50:51.663Z,100989.94
2022-08-25T09:56:00.186Z,100982.31
2022-08-25T10:01:01.910Z,100979.53
2022-08-25T10:06:14.577Z,100982.41
2022-08-25T10:11:35.661Z,100981.09
2022-08-25T10:16:37.603Z,100981.53
2022-08-25T10:21:42.495Z,100975.59
2022-08-25T10:27:00.544Z,100960.56
2022-08-25T10:32:18.621Z,100966.94
2022-08-25T10:37:50.610Z,100947.44
2022-08-25T10:43:13.416Z,100947.09
2022-08-25T10:48:33.008Z,100944.44
2022-08-25T10:54:00.807Z,100932.47
2022-08-25T10:59:23.579Z,100929.66
2022-08-25T11:04:37.800Z,100926.50
2022-08-25T11:09:45.187Z,100908.41
2022-08-25T11:14:52.532Z,100913.91
2022-08-25T11:19:59.149Z,100910.94
2022-08-25T11:25:00.559Z,100899.94
2022-08-25T11:30:09.727Z,100897.19
2022-08-25T11:35:13.519Z,100899.88
2022-08-25T11:40:28.040Z,100903.97
2022-08-25T11:45:54.432Z,100886.69
2022-08-25T11:51:02.168Z,100884.81
2022-08-25T11:56:35.778Z,100875.63
2022-08-25T12:01:40.139Z,100870.81
2022-08-25T12:07:03.512Z,100861.47
2022-08-25T12:12:28.563Z,100859.03
2022-08-25T12:17:39.450Z,100852.88
2022-08-25T12:22:50.495Z,100845.47
2022-08-25T12:28:04.936Z,100842.75
2022-08-25T12:33:17.222Z,100839.50
2022-08-25T12:38:49.589Z,100839.16
2022-08-25T12:44:08.911Z,100830.28
2022-08-25T12:49:28.948Z,100824.09
2022-08-25T12:54:36.256Z,100829.16
2022-08-25T12:59:44.688Z,100827.50
2022-08-25T13:05:27.997Z,100820.88
2022-08-25T13:10:55.345Z,100815.97
2022-08-25T13:16:02.635Z,100804.50
2022-08-25T13:21:13.540Z,100801.38
2022-08-25T13:26:21.399Z,100797.38
2022-08-25T13:31:22.884Z,100792.63
2022-08-25T13:36:27.305Z,100788.03
2022-08-25T13:41:30.368Z,100781.78
2022-08-25T13:46:35.822Z,100778.59
2022-08-25T13:51:39.193Z,100769.50
2022-08-25T13:56:42.133Z,100763.19
2022-08-25T14:01:49.468Z,100764.84
2022-08-25T14:07:19.277Z,100755.66
2022-08-25T14:12:30.472Z,100755.16
2022-08-25T14:17:39.333Z,100752.88
2022-08-25T14:22:42.036Z,100738.94
2022-08-25T14:28:03.549Z,100746.44
2022-08-25T14:33:06.873Z,100734.31
2022-08-25T14:38:11.221Z,100733.75
2022-08-25T14:43:13.021Z,100734.44
2022-08-25T14:48:24.028Z,100733.59
2022-08-25T14:53:26.621Z,100731.53
2022-08-25T14:58:34.057Z,100729.28
2022-08-25T15:03:41.782Z,100721.53
2022-08-25T15:08:44.575Z,100711.31
2022-08-25T15:13:49.399Z,100711.28
2022-08-25T15:18:51.581Z,100702.59
2022-08-25T15:23:56.518Z,100692.81
2022-08-25T15:28:58.055Z,100689.34
2022-08-25T15:33:59.506Z,100688.50
2022-08-25T15:39:00.938Z,100682.63
2022-08-25T15:44:02.687Z,100682.94
2022-08-25T15:49:04.643Z,100683.63
2022-08-25T15:54:09.217Z,100683.38
2022-08-25T15:59:10.953Z,100681.97
2022-08-25T16:04:12.371Z,100685.34
2022-08-25T16:09:13.795Z,100681.53
2022-08-25T16:14:15.270Z,100679.16
2022-08-25T16:19:17.236Z,100678.25
2022-08-25T16:24:18.710Z,100671.06
2022-08-25T16:29:20.882Z,100665.84
2022-08-25T16:34:24.538Z,100664.72
2022-08-25T16:39:29.938Z,100668.28
2022-08-25T16:44:32.175Z,100659.91
2022-08-25T16:49:33.626Z,100665.44
2022-08-25T16:54:35.089Z,100662.66
2022-08-25T16:59:36.492Z,100667.94
2022-08-25T17:04:44.218Z,100664.91
2022-08-25T17:09:54.019Z,100664.78
2022-08-25T17:15:00.550Z,100665.59
2022-08-25T17:20:18.721Z,100661.88
2022-08-25T17:25:20.230Z,100660.81
2022-08-25T17:30:27.974Z,100657.97
2022-08-25T17:35:31.149Z,100664.59
2022-08-25T17:40:33.085Z,100668.81
2022-08-25T17:45:37.292Z,100663.91
2022-08-25T17:50:41.086Z,100666.59
2022-08-25T17:55:43.295Z,100663.22
2022-08-25T18:00:51.724Z,100672.25
2022-08-25T18:05:57.909Z,100678.78
2022-08-25T18:10:59.547Z,100669.66
2022-08-25T18:16:01.215Z,100669.88
2022-08-25T18:21:04.827Z,100674.00
2022-08-25T18:26:09.221Z,100678.53
2022-08-25T18:31:14.537Z,100682.88
2022-08-25T18:36:16.353Z,100676.63
2022-08-25T18:52:26.677Z,100680.81
2022-08-25T18:57:30.806Z,100686.47
2022-08-25T19:02:32.363Z,100689.28
2022-08-25T19:07:33.891Z,100686.03
2022-08-25T19:12:36.692Z,100685.88
2022-08-25T19:17:38.693Z,100691.19
2022-08-25T19:22:42.256Z,100690.06
2022-08-25T19:27:44.616Z,100689.41
2022-08-25T19:32:47.607Z,100688.13
2022-08-25T19:37:50.064Z,100694.50
2022-08-25T19:42:53.909Z,100685.59
2022-08-25T19:47:56.195Z,100690.03
2022-08-25T19:52:57.660Z,100691.72
2022-08-25T19:58:00.162Z,100684.50
2022-08-25T20:03:02.541Z,100698.88
2022-08-25T20:08:05.071Z,100690.72
2022-08-25T20:13:07.300Z,100706.75
2022-08-25T20:18:09.253Z,100703.78
2022-08-25T20:23:11.406Z,100716.75
2022-08-25T20:28:18.697Z,100713.91
2022-08-25T20:33:22.823Z,100716.69
2022-08-25T20:38:25.085Z,100725.38
2022-08-25T20:43:27.543Z,100718.69
2022-08-25T20:48:29.138Z,100727.31
2022-08-25T20:53:30.802Z,100723.50
2022-08-25T20:58:32.248Z,100725.75
2022-08-25T21:03:33.702Z,100731.88
2022-08-25T21:08:36.746Z,100724.31
2022-08-25T21:13:46.663Z,100728.72
2022-08-25T21:18:48.442Z,100722.34
2022-08-25T21:23:51.688Z,100720.16
2022-08-25T21:28:56.111Z,100734.69
2022-08-25T21:33:59.070Z,100731.75
2022-08-25T21:39:02.202Z,100733.50
2022-08-25T21:44:03.781Z,100741.34
2022-08-25T21:49:07.625Z,100734.16
2022-08-25T21:54:13.555Z,100741.13
2022-08-25T21:59:18.911Z,100736.47
2022-08-25T22:04:20.588Z,100741.84
2022-08-25T22:09:22.778Z,100733.72
2022-08-25T22:14:26.459Z,100729.31
2022-08-25T22:19:28.550Z,100733.22
2022-08-25T22:24:30.185Z,100734.13
2022-08-25T22:29:31.619Z,100735.81
2022-08-25T22:34:34.272Z,100734.69
2022-08-25T22:39:35.710Z,100730.50
2022-08-25T22:44:40.716Z,100731.06
2022-08-25T22:49:42.222Z,100749.03
2022-08-25T22:54:44.865Z,100739.75
2022-08-25T22:59:46.324Z,100743.72
2022-08-25T23:04:47.980Z,100741.69
2022-08-25T23:09:49.938Z,100742.50
2022-08-25T23:14:51.408Z,100747.91
2022-08-25T23:19:52.822Z,100750.25
2022-08-25T23:24:54.274Z,100750.03
2022-08-25T23:29:55.783Z,100776.44
2022-08-25T23:34:58.983Z,100751.94
2022-08-25T23:40:00.510Z,100764.56
2022-08-25T23:45:02.441Z,100754.56
2022-08-25T23:50:04.243Z,100750.81
2022-08-25T23:55:06.791Z,100754.91
